罗盘
风向 的 风向 010° Downsview Airport 15/33
风: 4 kt, 2 beaufort

3 kt

3 kt
改变
0 1.000 2.000 3.000 4.000 5.000
没有云
METAR CYOO 291000Z AUTO 01004KT 9SM CLR 02/02 A3047 RMK SLP325

METAR Downsview Airport - CYZD

Downsview Airport是Toronto,加拿大中的中型机场。 该机场有一条跑道: 15/33. 该领域的国际民航组织标志是CYZD.

这份报告是针对2022年9月29日 06:00, 当地时间在Toronto/Oshawa Executive Airport进行的。

机场观察

风向为010°,速度为4 kt。

可见度为9 mi。

有没有云。 没有观察到天花板。

温度为2 °C,阵风为-2 °C。 露点为2 °C,相对湿度为100%。 海平面上的气压为30,47 inHg (QNH)。

白天

今天,太阳从07:13升起,在19:02降落。 这适用于Downsview Airport,世界夏令时可能有所不同。 当地时间与世界标准时间之间的时差为-4 小时。 夏令时目前正在进行中。

公司介绍

我们没有关于这个机场的公司信息。

体会

到Vliegles.nl去找飞行课程,跳伞和其他飞行体验。 浏览页面,了解Downsview Airport附近所有可用的活动。 你也可以使用搜索功能来寻找你所在地附近的特定飞行课程、跳伞或其他飞行体验。

跑道

Id 标题 侧风 逆风 侧风 %
15/33 139°-319° 3 kt 3 kt 78 %

逆风成分最大的方向会被突出显示,并用于横风计算。 这并不一定意味着这个方向在使用。

乌云

- CLR 没有云

温度 & 天气

温度 2 °C
露点 2 °C
相对湿度 100%
风寒 -2 °C
Kp-index 2 (0-9)

评论

SLP325海平面压力为30,49 inHg (30,49 inHg)

白天

日出
07:11 (23m)
中午
13:05
日落
19:00

小工具

你想在你的网站上有一个关于Downsview Airport的当前航空天气(METAR)的小部件吗?

</> 显示HTML代码

我们和第三方通过cookies跟踪您在我们网站上的上网行为。如果您继续,我们认为您同意我们的cookie政策。 了解更多